createdAt,value
2019-01-25T08:20:00.901Z,20.716858
2019-01-25T08:20:06.948Z,20.737
2019-01-25T08:20:12.485Z,20.737
2019-01-25T08:20:18.700Z,20.706787
2019-01-25T08:20:25.854Z,20.737
2019-01-25T08:20:31.483Z,20.757141
2019-01-25T08:20:39.134Z,20.737
2019-01-25T08:20:44.894Z,20.757141
2019-01-25T08:20:50.500Z,20.737
2019-01-25T08:20:57.088Z,20.757141
2019-01-25T08:21:03.737Z,20.737
2019-01-25T08:21:10.369Z,20.757141
2019-01-25T08:21:17.222Z,20.757141
2019-01-25T08:21:22.912Z,20.737
2019-01-25T08:21:28.502Z,20.737
2019-01-25T08:21:36.052Z,20.767212
2019-01-25T08:21:40.701Z,20.767212
2019-01-25T08:21:47.408Z,20.767212
2019-01-25T08:21:53.014Z,20.797424
2019-01-25T08:21:59.597Z,20.797424
2019-01-25T08:22:05.228Z,20.787354
2019-01-25T08:22:10.871Z,20.787354
2019-01-25T08:22:16.513Z,20.767212
2019-01-25T08:22:22.194Z,20.787354
2019-01-25T08:22:27.775Z,20.767212
2019-01-25T08:22:33.341Z,20.797424
2019-01-25T08:22:39.909Z,20.787354
2019-01-25T08:22:47.650Z,20.797424
2019-01-25T08:22:54.334Z,20.787354
2019-01-25T08:23:00.974Z,20.797424
2019-01-25T08:23:06.816Z,20.797424
2019-01-25T08:23:13.118Z,20.857849
2019-01-25T08:23:19.756Z,20.898132
2019-01-25T08:23:26.080Z,20.928345
2019-01-25T08:23:32.270Z,20.978699
2019-01-25T08:23:38.972Z,21.018982
2019-01-25T08:23:44.529Z,21.049194
2019-01-25T08:23:50.123Z,21.039124
2019-01-25T08:23:55.812Z,21.059265
2019-01-25T08:24:02.193Z,21.059265
2019-01-25T08:24:07.788Z,21.089478
2019-01-25T08:24:14.452Z,21.109619
2019-01-25T08:24:20.193Z,21.139832
2019-01-25T08:24:25.907Z,21.170044
2019-01-25T08:24:33.401Z,21.170044
2019-01-25T08:24:39.030Z,21.190186
2019-01-25T08:24:44.601Z,21.230469
2019-01-25T08:24:50.163Z,21.24054
2019-01-25T08:24:56.710Z,21.230469
2019-01-25T08:25:02.365Z,21.24054
2019-01-25T08:25:08.017Z,21.24054
2019-01-25T08:25:13.652Z,21.270752
2019-01-25T08:25:19.280Z,21.260681
2019-01-25T08:25:25.597Z,21.270752
2019-01-25T08:25:33.218Z,21.270752
2019-01-25T08:25:39.032Z,21.270752
2019-01-25T08:25:45.625Z,21.290894
2019-01-25T08:25:51.276Z,21.300964
2019-01-25T08:25:56.918Z,21.290894
2019-01-25T08:26:02.625Z,21.300964
2019-01-25T08:26:08.260Z,21.300964
2019-01-25T08:26:15.768Z,21.300964
2019-01-25T08:26:21.457Z,21.300964
2019-01-25T08:26:27.066Z,21.300964
2019-01-25T08:26:32.766Z,21.300964
2019-01-25T08:26:39.482Z,21.321106
2019-01-25T08:26:45.051Z,21.321106
2019-01-25T08:26:50.709Z,21.290894
2019-01-25T08:26:56.999Z,21.321106
2019-01-25T08:27:02.731Z,21.321106
2019-01-25T08:27:09.298Z,21.300964
2019-01-25T08:27:14.888Z,21.300964
2019-01-25T08:27:20.594Z,21.321106
2019-01-25T08:27:26.273Z,21.321106
2019-01-25T08:27:31.867Z,21.321106
2019-01-25T08:27:38.462Z,21.321106
2019-01-25T08:27:45.010Z,21.300964
2019-01-25T08:27:50.656Z,21.321106
2019-01-25T08:27:56.183Z,21.300964
2019-01-25T08:28:03.745Z,21.341248
2019-01-25T08:28:08.518Z,21.351318
2019-01-25T08:28:15.173Z,21.341248
2019-01-25T08:28:20.748Z,21.321106
2019-01-25T08:28:26.341Z,21.300964
2019-01-25T08:28:31.978Z,21.341248
2019-01-25T08:28:37.580Z,21.321106
2019-01-25T08:28:43.263Z,21.300964
2019-01-25T08:28:48.826Z,21.321106
2019-01-25T08:28:54.374Z,21.341248
2019-01-25T08:29:00.005Z,21.341248
2019-01-25T08:29:05.591Z,21.321106
2019-01-25T08:29:12.226Z,21.341248
2019-01-25T08:29:17.813Z,21.341248
2019-01-25T08:29:28.008Z,21.321106
2019-01-25T08:29:33.403Z,21.351318
2019-01-25T08:29:39.080Z,21.341248
2019-01-25T08:29:44.812Z,21.341248
2019-01-25T08:29:52.311Z,21.341248
2019-01-25T08:29:58.017Z,21.351318
2019-01-25T08:30:03.633Z,21.351318
2019-01-25T08:30:10.326Z,21.351318
2019-01-25T08:30:16.037Z,21.361389
2019-01-25T08:30:21.756Z,21.361389
2019-01-25T08:30:27.269Z,21.381531
2019-01-25T08:30:34.798Z,21.391602
2019-01-25T08:30:41.396Z,21.381531
2019-01-25T08:30:47.084Z,21.391602
2019-01-25T08:30:53.759Z,21.421814
2019-01-25T08:30:59.422Z,21.421814
2019-01-25T08:31:05.036Z,21.421814
2019-01-25T08:31:10.638Z,21.441956
2019-01-25T08:31:16.307Z,21.452026
2019-01-25T08:31:21.828Z,21.462097
2019-01-25T08:31:28.245Z,21.482239
2019-01-25T08:31:33.885Z,21.482239
2019-01-25T08:31:39.516Z,21.512451
2019-01-25T08:31:45.056Z,21.512451
2019-01-25T08:31:52.700Z,21.50238
2019-01-25T08:31:58.484Z,21.512451
2019-01-25T08:32:04.044Z,21.532593
2019-01-25T08:32:10.713Z,21.542664
2019-01-25T08:32:17.426Z,21.532593
2019-01-25T08:32:25.135Z,21.542664
2019-01-25T08:32:32.092Z,21.532593
2019-01-25T08:32:38.133Z,21.532593
2019-01-25T08:32:44.508Z,21.542664
2019-01-25T08:32:50.971Z,21.562805
2019-01-25T08:32:56.857Z,21.532593
2019-01-25T08:33:03.257Z,21.532593
2019-01-25T08:33:09.786Z,21.562805
2019-01-25T08:33:16.464Z,21.542664
2019-01-25T08:33:22.128Z,21.542664
2019-01-25T08:33:27.604Z,21.542664
2019-01-25T08:33:34.209Z,21.512451
2019-01-25T08:33:40.932Z,21.532593
2019-01-25T08:33:46.487Z,21.532593
2019-01-25T08:33:52.156Z,21.542664
2019-01-25T08:33:57.734Z,21.562805
2019-01-25T08:34:03.401Z,21.532593
2019-01-25T08:34:09.060Z,21.542664
2019-01-25T08:34:14.610Z,21.562805
2019-01-25T08:34:20.197Z,21.572876
2019-01-25T08:34:25.838Z,21.593018
2019-01-25T08:34:31.456Z,21.572876
2019-01-25T08:34:37.273Z,21.572876
2019-01-25T08:34:43.646Z,21.613159
2019-01-25T08:34:49.259Z,21.603088
2019-01-25T08:34:54.861Z,21.613159
2019-01-25T08:35:00.758Z,21.633301
2019-01-25T08:35:06.082Z,21.643372
2019-01-25T08:35:12.689Z,21.643372
2019-01-25T08:35:18.321Z,21.663513
2019-01-25T08:35:23.782Z,21.663513
2019-01-25T08:35:29.384Z,21.663513
2019-01-25T08:35:34.968Z,21.673584
2019-01-25T08:35:40.564Z,21.663513
2019-01-25T08:35:46.220Z,21.693726
2019-01-25T08:35:52.788Z,21.693726
2019-01-25T08:35:58.460Z,21.693726
2019-01-25T08:36:05.102Z,21.693726
2019-01-25T08:36:10.758Z,21.713867
2019-01-25T08:36:16.355Z,21.693726
2019-01-25T08:36:22.953Z,21.713867
2019-01-25T08:36:30.692Z,21.713867
2019-01-25T08:36:37.422Z,21.673584
2019-01-25T08:36:44.080Z,21.673584
2019-01-25T08:36:50.763Z,21.693726
2019-01-25T08:36:56.345Z,21.713867
2019-01-25T08:37:03.041Z,21.713867
2019-01-25T08:37:09.419Z,21.673584
2019-01-25T08:37:15.439Z,21.693726
2019-01-25T08:37:21.090Z,21.673584
2019-01-25T08:37:27.592Z,21.673584
2019-01-25T08:37:33.256Z,21.693726
2019-01-25T08:37:39.886Z,21.693726
2019-01-25T08:37:46.497Z,21.673584
2019-01-25T08:37:53.262Z,21.673584
2019-01-25T08:38:01.950Z,21.663513
2019-01-25T08:38:08.633Z,21.643372
2019-01-25T08:38:14.302Z,21.663513
2019-01-25T08:38:19.946Z,21.663513
2019-01-25T08:38:26.504Z,21.633301
2019-01-25T08:38:32.173Z,21.633301
2019-01-25T08:38:38.806Z,21.613159
2019-01-25T08:38:45.541Z,21.633301
2019-01-25T08:38:51.080Z,21.613159
2019-01-25T08:38:56.672Z,21.613159
2019-01-25T08:39:02.297Z,21.603088
2019-01-25T08:39:08.858Z,21.633301
2019-01-25T08:39:15.534Z,21.633301
2019-01-25T08:39:21.260Z,21.603088
2019-01-25T08:39:27.785Z,21.633301
2019-01-25T08:39:33.490Z,21.603088
2019-01-25T08:39:39.228Z,21.603088
2019-01-25T08:39:44.793Z,21.603088
2019-01-25T08:39:52.770Z,21.633301
2019-01-25T08:39:59.167Z,21.613159
2019-01-25T08:40:04.711Z,21.613159
2019-01-25T08:40:11.337Z,21.603088
2019-01-25T08:40:16.986Z,21.613159
2019-01-25T08:40:22.613Z,21.613159
2019-01-25T08:40:28.293Z,21.603088
2019-01-25T08:40:33.817Z,21.613159
2019-01-25T08:40:39.406Z,21.603088
2019-01-25T08:40:46.099Z,21.603088
2019-01-25T08:40:51.659Z,21.593018
2019-01-25T08:40:58.284Z,21.603088
2019-01-25T08:41:03.918Z,21.603088
2019-01-25T08:41:09.515Z,21.593018
2019-01-25T08:41:15.142Z,21.603088
2019-01-25T08:41:21.725Z,21.603088
2019-01-25T08:41:27.409Z,21.593018
2019-01-25T08:41:32.984Z,21.603088
2019-01-25T08:41:39.364Z,21.603088
2019-01-25T08:41:45.151Z,21.593018
2019-01-25T08:41:50.577Z,21.593018
2019-01-25T08:41:56.190Z,21.572876
2019-01-25T08:42:01.705Z,21.572876
2019-01-25T08:42:07.290Z,21.572876
2019-01-25T08:42:16.833Z,21.593018
2019-01-25T08:42:22.828Z,21.603088
2019-01-25T08:42:28.489Z,21.593018
2019-01-25T08:42:35.238Z,21.593018
2019-01-25T08:42:40.902Z,21.593018
2019-01-25T08:42:47.585Z,21.593018
2019-01-25T08:42:53.369Z,21.593018
2019-01-25T08:42:59.836Z,21.572876
2019-01-25T08:43:06.415Z,21.572876
2019-01-25T08:43:13.201Z,21.593018
2019-01-25T08:43:18.835Z,21.593018
2019-01-25T08:43:25.422Z,21.603088
2019-01-25T08:43:32.006Z,21.572876
2019-01-25T08:43:37.778Z,21.593018
2019-01-25T08:43:43.499Z,21.572876
2019-01-25T08:43:49.377Z,21.562805
2019-01-25T08:43:57.570Z,21.572876
2019-01-25T08:44:04.253Z,21.572876
2019-01-25T08:44:09.008Z,21.603088
2019-01-25T08:44:14.975Z,21.593018
2019-01-25T08:44:22.249Z,21.562805
2019-01-25T08:44:27.945Z,21.572876
2019-01-25T08:44:35.469Z,21.562805
2019-01-25T08:44:44.432Z,21.593018
2019-01-25T08:44:51.308Z,21.572876
2019-01-25T08:44:59.788Z,21.572876
2019-01-25T08:45:06.964Z,21.562805
2019-01-25T08:45:12.740Z,21.572876
2019-01-25T08:45:19.019Z,21.562805
2019-01-25T08:45:25.566Z,21.593018
2019-01-25T08:45:31.290Z,21.572876
2019-01-25T08:45:36.762Z,21.593018
2019-01-25T08:45:42.376Z,21.593018
2019-01-25T08:45:50.028Z,21.603088
2019-01-25T08:45:55.646Z,21.603088
2019-01-25T08:46:01.200Z,21.593018
2019-01-25T08:46:06.750Z,21.603088
2019-01-25T08:46:12.319Z,21.593018
2019-01-25T08:46:17.881Z,21.603088
2019-01-25T08:46:23.416Z,21.603088
2019-01-25T08:46:29.071Z,21.603088
2019-01-25T08:46:34.522Z,21.593018
2019-01-25T08:46:41.075Z,21.593018
2019-01-25T08:46:46.865Z,21.613159
2019-01-25T08:46:53.502Z,21.603088
2019-01-25T08:46:59.124Z,21.603088
2019-01-25T08:47:06.810Z,21.593018
2019-01-25T08:47:12.483Z,21.603088
2019-01-25T08:47:18.218Z,21.613159
2019-01-25T08:47:24.768Z,21.603088
2019-01-25T08:47:31.336Z,21.603088
2019-01-25T08:47:36.861Z,21.603088
2019-01-25T08:47:42.393Z,21.603088
2019-01-25T08:47:48.064Z,21.603088
2019-01-25T08:47:53.572Z,21.613159
2019-01-25T08:47:59.423Z,21.603088
2019-01-25T08:48:04.887Z,21.613159
2019-01-25T08:48:10.414Z,21.613159
2019-01-25T08:48:16.070Z,21.613159
2019-01-25T08:48:21.858Z,21.633301
2019-01-25T08:48:29.331Z,21.633301
2019-01-25T08:48:34.941Z,21.633301
2019-01-25T08:48:40.680Z,21.663513
2019-01-25T08:48:47.462Z,21.633301
2019-01-25T08:48:53.019Z,21.633301
2019-01-25T08:48:59.420Z,21.633301
2019-01-25T08:49:04.973Z,21.633301
2019-01-25T08:49:11.521Z,21.613159
2019-01-25T08:49:18.250Z,21.633301
2019-01-25T08:49:23.906Z,21.633301
2019-01-25T08:49:30.494Z,21.643372
2019-01-25T08:49:36.254Z,21.643372
2019-01-25T08:49:41.882Z,21.633301
2019-01-25T08:49:48.536Z,21.633301
2019-01-25T08:49:58.330Z,21.643372
2019-01-25T08:50:04.260Z,21.633301
2019-01-25T08:50:09.790Z,21.643372
2019-01-25T08:50:15.512Z,21.663513
2019-01-25T08:50:21.037Z,21.663513
2019-01-25T08:50:26.680Z,21.663513
2019-01-25T08:50:32.374Z,21.663513
2019-01-25T08:50:37.910Z,21.663513
2019-01-25T08:50:43.385Z,21.663513
2019-01-25T08:50:50.174Z,21.663513
2019-01-25T08:50:56.789Z,21.673584
2019-01-25T08:51:02.657Z,21.673584
2019-01-25T08:51:08.288Z,21.673584
2019-01-25T08:51:14.814Z,21.673584
2019-01-25T08:51:20.474Z,21.673584
2019-01-25T08:51:25.997Z,21.673584
2019-01-25T08:51:32.657Z,21.673584
2019-01-25T08:51:38.595Z,21.673584
2019-01-25T08:51:43.963Z,21.693726
2019-01-25T08:51:49.622Z,21.713867
2019-01-25T08:51:55.206Z,21.693726
2019-01-25T08:52:00.814Z,21.693726
2019-01-25T08:52:06.413Z,21.673584
2019-01-25T08:52:13.237Z,21.693726
2019-01-25T08:52:19.780Z,21.713867
2019-01-25T08:52:25.581Z,21.713867
2019-01-25T08:52:31.162Z,21.723938
2019-01-25T08:52:36.761Z,21.713867
2019-01-25T08:52:43.330Z,21.713867
2019-01-25T08:52:48.993Z,21.723938
2019-01-25T08:52:54.664Z,21.723938
2019-01-25T08:53:00.244Z,21.713867
2019-01-25T08:53:06.881Z,21.74408
2019-01-25T08:53:12.595Z,21.74408
2019-01-25T08:53:18.018Z,21.713867
2019-01-25T08:53:23.674Z,21.723938
2019-01-25T08:53:29.284Z,21.713867
2019-01-25T08:53:34.962Z,21.723938
2019-01-25T08:53:41.716Z,21.723938
2019-01-25T08:53:47.268Z,21.74408
2019-01-25T08:53:53.858Z,21.74408
2019-01-25T08:53:59.528Z,21.74408
2019-01-25T08:54:05.233Z,21.723938
2019-01-25T08:54:10.947Z,21.74408
2019-01-25T08:54:18.559Z,21.74408
2019-01-25T08:54:24.267Z,21.74408
2019-01-25T08:54:29.998Z,21.74408
2019-01-25T08:54:35.580Z,21.75415
2019-01-25T08:54:42.044Z,21.74408
2019-01-25T08:54:47.802Z,21.75415
2019-01-25T08:54:55.438Z,21.74408
2019-01-25T08:55:01.095Z,21.75415
2019-01-25T08:55:08.859Z,21.74408
2019-01-25T08:55:14.637Z,21.74408
2019-01-25T08:55:21.424Z,21.723938
2019-01-25T08:55:27.759Z,21.74408
2019-01-25T08:55:34.478Z,21.723938
2019-01-25T08:55:41.183Z,21.74408
2019-01-25T08:55:49.132Z,21.74408
2019-01-25T08:55:54.750Z,21.723938
2019-01-25T08:56:01.428Z,21.75415
2019-01-25T08:56:07.201Z,21.74408
2019-01-25T08:56:12.794Z,21.74408
2019-01-25T08:56:18.438Z,21.74408
2019-01-25T08:56:24.042Z,21.723938
2019-01-25T08:56:30.623Z,21.723938
2019-01-25T08:56:36.191Z,21.74408
2019-01-25T08:56:41.966Z,21.74408
2019-01-25T08:56:47.603Z,21.74408
2019-01-25T08:56:54.079Z,21.74408
2019-01-25T08:56:59.699Z,21.74408
2019-01-25T08:57:05.341Z,21.75415
2019-01-25T08:57:10.931Z,21.75415
2019-01-25T08:57:17.759Z,21.75415
2019-01-25T08:57:24.368Z,21.723938
2019-01-25T08:57:30.019Z,21.75415
2019-01-25T08:57:36.544Z,21.74408
2019-01-25T08:57:42.193Z,21.75415
2019-01-25T08:57:47.797Z,21.75415
2019-01-25T08:57:53.425Z,21.74408
2019-01-25T08:57:59.064Z,21.74408
2019-01-25T08:58:04.702Z,21.74408
2019-01-25T08:58:10.329Z,21.74408
2019-01-25T08:58:15.938Z,21.74408
2019-01-25T08:58:21.609Z,21.75415
2019-01-25T08:58:28.225Z,21.75415
2019-01-25T08:58:35.814Z,21.74408
2019-01-25T08:58:40.880Z,21.74408
2019-01-25T08:58:46.413Z,21.75415
2019-01-25T08:58:52.145Z,21.74408
2019-01-25T08:58:58.831Z,21.75415
2019-01-25T08:59:04.529Z,21.75415
2019-01-25T08:59:10.134Z,21.75415
2019-01-25T08:59:15.765Z,21.75415
2019-01-25T08:59:22.440Z,21.75415
2019-01-25T08:59:28.297Z,21.764221
2019-01-25T08:59:33.962Z,21.764221
2019-01-25T08:59:39.689Z,21.784363
2019-01-25T08:59:47.482Z,21.784363
2019-01-25T08:59:53.139Z,21.764221
2019-01-25T08:59:58.788Z,21.784363
2019-01-25T09:00:04.358Z,21.764221
2019-01-25T09:00:11.029Z,21.784363
2019-01-25T09:00:16.883Z,21.784363
2019-01-25T09:00:22.496Z,21.784363
2019-01-25T09:00:29.314Z,21.764221
2019-01-25T09:00:35.010Z,21.784363
2019-01-25T09:00:40.771Z,21.784363
2019-01-25T09:00:46.402Z,21.794434
2019-01-25T09:00:53.225Z,21.784363
2019-01-25T09:00:58.814Z,21.784363
2019-01-25T09:01:04.513Z,21.764221
2019-01-25T09:01:11.187Z,21.794434
2019-01-25T09:01:17.027Z,21.794434
2019-01-25T09:01:22.805Z,21.794434
2019-01-25T09:01:30.554Z,21.794434
2019-01-25T09:01:36.431Z,21.814575
2019-01-25T09:01:42.151Z,21.794434
2019-01-25T09:01:47.851Z,21.784363
2019-01-25T09:01:53.434Z,21.824646
2019-01-25T09:02:00.115Z,21.814575
2019-01-25T09:02:06.036Z,21.824646
2019-01-25T09:02:11.695Z,21.824646
2019-01-25T09:02:17.422Z,21.794434
2019-01-25T09:02:23.179Z,21.824646
2019-01-25T09:02:31.271Z,21.814575
2019-01-25T09:02:39.836Z,21.814575
2019-01-25T09:02:46.282Z,21.814575
2019-01-25T09:02:52.845Z,21.814575
2019-01-25T09:02:59.777Z,21.824646
2019-01-25T09:03:05.331Z,21.814575
2019-01-25T09:03:11.032Z,21.824646
2019-01-25T09:03:16.682Z,21.824646
2019-01-25T09:03:23.534Z,21.834717
2019-01-25T09:03:30.361Z,21.834717
2019-01-25T09:03:37.181Z,21.824646
2019-01-25T09:03:42.804Z,21.824646
2019-01-25T09:03:48.510Z,21.834717
2019-01-25T09:03:54.185Z,21.824646
2019-01-25T09:04:00.903Z,21.854858
2019-01-25T09:04:08.894Z,21.834717
2019-01-25T09:04:18.199Z,21.854858
2019-01-25T09:04:23.796Z,21.854858
2019-01-25T09:04:29.502Z,21.834717
2019-01-25T09:04:36.188Z,21.854858
2019-01-25T09:04:42.046Z,21.834717
2019-01-25T09:04:47.852Z,21.854858
2019-01-25T09:04:53.489Z,21.854858
2019-01-25T09:04:59.213Z,21.854858
2019-01-25T09:05:06.076Z,21.854858
2019-01-25T09:05:12.004Z,21.834717
2019-01-25T09:05:18.312Z,21.854858
2019-01-25T09:05:24.255Z,21.875
2019-01-25T09:05:29.974Z,21.854858
2019-01-25T09:05:36.741Z,21.875
2019-01-25T09:05:42.631Z,21.875
2019-01-25T09:05:48.421Z,21.854858
2019-01-25T09:05:54.157Z,21.875
2019-01-25T09:06:02.122Z,21.895142
2019-01-25T09:06:07.931Z,21.875
2019-01-25T09:06:14.739Z,21.895142
2019-01-25T09:06:22.258Z,21.875
2019-01-25T09:06:27.483Z,21.895142
2019-01-25T09:06:35.684Z,21.895142
2019-01-25T09:06:45.653Z,21.895142
2019-01-25T09:06:51.358Z,21.895142
2019-01-25T09:06:57.163Z,21.895142
2019-01-25T09:07:02.861Z,21.895142
2019-01-25T09:07:08.449Z,21.905212
2019-01-25T09:07:15.211Z,21.895142
2019-01-25T09:07:21.154Z,21.915283
2019-01-25T09:07:26.862Z,21.905212
2019-01-25T09:07:33.674Z,21.905212
2019-01-25T09:07:40.303Z,21.895142
2019-01-25T09:07:46.335Z,21.905212
2019-01-25T09:07:52.080Z,21.915283
2019-01-25T09:07:59.021Z,21.915283
2019-01-25T09:08:04.744Z,21.915283
2019-01-25T09:08:10.331Z,21.935425
2019-01-25T09:08:16.053Z,21.905212
2019-01-25T09:08:22.721Z,21.915283
2019-01-25T09:08:29.765Z,21.935425
2019-01-25T09:08:35.509Z,21.905212
2019-01-25T09:08:43.367Z,21.915283
2019-01-25T09:08:49.212Z,21.915283
2019-01-25T09:08:56.018Z,21.935425
2019-01-25T09:09:01.745Z,21.935425
2019-01-25T09:09:07.509Z,21.945496
2019-01-25T09:09:13.230Z,21.935425
2019-01-25T09:09:18.833Z,21.935425
2019-01-25T09:09:24.578Z,21.945496
2019-01-25T09:09:30.392Z,21.935425
2019-01-25T09:09:37.428Z,21.945496
2019-01-25T09:09:45.116Z,21.945496
2019-01-25T09:09:50.853Z,21.945496
2019-01-25T09:09:56.584Z,21.965637
2019-01-25T09:10:02.340Z,21.945496
2019-01-25T09:10:08.104Z,21.975708
2019-01-25T09:10:13.673Z,21.935425
2019-01-25T09:10:19.409Z,21.965637
2019-01-25T09:10:25.096Z,21.965637
2019-01-25T09:10:31.876Z,21.945496
2019-01-25T09:10:37.721Z,21.965637
2019-01-25T09:10:44.520Z,21.965637
2019-01-25T09:10:50.210Z,21.965637
2019-01-25T09:10:55.915Z,21.975708
2019-01-25T09:11:01.460Z,21.965637
2019-01-25T09:11:08.052Z,21.965637
2019-01-25T09:11:15.014Z,21.975708
2019-01-25T09:11:21.830Z,21.975708
2019-01-25T09:11:28.644Z,21.975708
2019-01-25T09:11:34.483Z,21.975708
2019-01-25T09:11:42.142Z,21.975708
2019-01-25T09:11:48.755Z,21.985779
2019-01-25T09:11:55.017Z,21.985779
2019-01-25T09:12:00.659Z,21.985779
2019-01-25T09:12:06.447Z,21.975708
2019-01-25T09:12:12.111Z,21.975708
2019-01-25T09:12:23.318Z,21.975708
2019-01-25T09:12:29.002Z,21.975708
2019-01-25T09:12:35.096Z,21.975708
2019-01-25T09:12:41.892Z,21.975708
2019-01-25T09:12:48.572Z,21.985779
2019-01-25T09:12:55.236Z,21.985779
2019-01-25T09:13:01.027Z,22.00592
2019-01-25T09:13:06.698Z,22.00592
2019-01-25T09:13:15.016Z,21.985779
2019-01-25T09:13:21.995Z,22.00592
2019-01-25T09:13:28.410Z,21.985779
2019-01-25T09:13:35.172Z,22.015991
2019-01-25T09:13:41.174Z,22.015991
2019-01-25T09:13:47.474Z,22.036133
2019-01-25T09:13:53.160Z,22.036133
2019-01-25T09:13:58.876Z,22.056274
2019-01-25T09:14:04.644Z,22.056274
2019-01-25T09:14:11.291Z,22.056274
2019-01-25T09:14:16.929Z,22.056274
2019-01-25T09:14:22.712Z,22.056274
2019-01-25T09:14:29.375Z,22.066345
2019-01-25T09:14:36.165Z,22.066345
2019-01-25T09:14:41.886Z,22.066345
2019-01-25T09:14:48.671Z,22.086487
2019-01-25T09:14:55.271Z,22.086487
2019-01-25T09:15:00.203Z,22.066345
2019-01-25T09:15:05.848Z,22.086487
2019-01-25T09:15:11.465Z,22.096558
2019-01-25T09:15:17.274Z,22.066345
2019-01-25T09:15:25.908Z,22.096558
2019-01-25T09:15:31.691Z,22.096558
2019-01-25T09:15:38.445Z,22.116699
2019-01-25T09:15:45.305Z,22.096558
2019-01-25T09:15:50.970Z,22.116699
2019-01-25T09:15:59.604Z,22.12677
2019-01-25T09:16:05.696Z,22.136841
2019-01-25T09:16:13.465Z,22.156982
2019-01-25T09:16:19.286Z,22.136841
2019-01-25T09:16:25.002Z,22.187195
2019-01-25T09:16:30.661Z,22.167053
2019-01-25T09:16:36.327Z,22.197266
2019-01-25T09:16:43.169Z,22.187195
2019-01-25T09:16:50.930Z,22.187195
2019-01-25T09:16:56.626Z,22.197266
2019-01-25T09:17:03.453Z,22.197266
2019-01-25T09:17:10.189Z,22.197266
2019-01-25T09:17:15.807Z,22.167053
2019-01-25T09:17:21.586Z,22.197266
2019-01-25T09:17:27.488Z,22.217407
2019-01-25T09:17:34.074Z,22.187195
2019-01-25T09:17:39.921Z,22.167053
2019-01-25T09:17:46.448Z,22.197266
2019-01-25T09:17:53.297Z,22.187195
2019-01-25T09:17:58.920Z,22.197266
2019-01-25T09:18:04.657Z,22.197266
2019-01-25T09:18:11.323Z,22.197266
2019-01-25T09:18:18.106Z,22.197266
2019-01-25T09:18:23.943Z,22.197266
2019-01-25T09:18:29.720Z,22.187195
2019-01-25T09:18:36.269Z,22.167053
2019-01-25T09:18:41.947Z,22.187195
2019-01-25T09:18:49.542Z,22.167053
2019-01-25T09:18:57.617Z,22.187195
2019-01-25T09:19:03.650Z,22.197266
2019-01-25T09:19:10.816Z,22.167053
2019-01-25T09:19:18.336Z,22.197266
2019-01-25T09:19:24.469Z,22.187195
2019-01-25T09:19:32.054Z,22.167053
2019-01-25T09:19:38.047Z,22.187195
2019-01-25T09:19:45.294Z,22.187195
2019-01-25T09:19:51.752Z,22.187195
2019-01-25T09:19:58.421Z,22.217407
2019-01-25T09:20:05.380Z,22.187195
2019-01-25T09:20:15.636Z,22.167053
2019-01-25T09:20:22.550Z,22.167053
2019-01-25T09:20:29.114Z,22.167053
2019-01-25T09:20:36.291Z,22.187195
2019-01-25T09:20:43.383Z,22.187195
2019-01-25T09:20:51.678Z,22.156982
2019-01-25T09:20:59.163Z,22.167053
2019-01-25T09:21:05.863Z,22.187195
2019-01-25T09:21:13.881Z,22.167053
2019-01-25T09:21:19.720Z,22.167053
2019-01-25T09:21:26.430Z,22.197266
2019-01-25T09:21:33.740Z,22.187195
2019-01-25T09:21:40.258Z,22.187195
2019-01-25T09:21:47.060Z,22.167053
2019-01-25T09:21:53.720Z,22.187195
2019-01-25T09:22:00.682Z,22.197266
2019-01-25T09:22:07.480Z,22.187195
2019-01-25T09:22:13.207Z,22.187195
2019-01-25T09:22:19.096Z,22.187195
2019-01-25T09:22:25.683Z,22.197266
2019-01-25T09:22:32.716Z,22.217407
2019-01-25T09:22:38.426Z,22.187195
2019-01-25T09:22:45.222Z,22.197266
2019-01-25T09:22:50.884Z,22.197266
2019-01-25T09:22:56.453Z,22.197266
2019-01-25T09:23:02.185Z,22.227478
2019-01-25T09:23:07.936Z,22.197266
2019-01-25T09:23:14.506Z,22.217407
2019-01-25T09:23:21.565Z,22.217407
2019-01-25T09:23:27.384Z,22.217407
2019-01-25T09:23:33.136Z,22.227478
2019-01-25T09:23:38.736Z,22.217407
2019-01-25T09:23:44.469Z,22.217407
2019-01-25T09:23:50.212Z,22.24762
2019-01-25T09:23:55.916Z,22.227478
2019-01-25T09:24:01.743Z,22.227478
2019-01-25T09:24:07.393Z,22.217407
2019-01-25T09:24:13.017Z,22.217407
2019-01-25T09:24:18.686Z,22.227478
2019-01-25T09:24:24.533Z,22.217407
2019-01-25T09:24:30.190Z,22.227478
2019-01-25T09:24:35.892Z,22.217407
2019-01-25T09:24:41.587Z,22.24762
2019-01-25T09:24:47.180Z,22.217407
2019-01-25T09:24:52.985Z,22.227478
2019-01-25T09:24:59.619Z,22.217407
2019-01-25T09:25:06.194Z,22.24762
2019-01-25T09:25:12.372Z,22.24762
2019-01-25T09:25:17.988Z,22.227478
2019-01-25T09:25:23.686Z,22.24762
2019-01-25T09:25:29.382Z,22.267761
2019-01-25T09:25:34.996Z,22.227478
2019-01-25T09:25:40.703Z,22.227478
2019-01-25T09:25:46.432Z,22.267761
2019-01-25T09:25:52.179Z,22.267761
2019-01-25T09:26:01.890Z,22.267761
2019-01-25T09:26:07.949Z,22.24762
2019-01-25T09:26:13.648Z,22.24762
2019-01-25T09:26:19.407Z,22.24762
2019-01-25T09:26:25.157Z,22.267761
2019-01-25T09:26:30.793Z,22.267761
2019-01-25T09:26:36.373Z,22.267761
2019-01-25T09:26:42.130Z,22.277832
2019-01-25T09:26:48.936Z,22.267761
2019-01-25T09:26:55.635Z,22.277832
2019-01-25T09:27:01.696Z,22.277832
2019-01-25T09:27:08.531Z,22.24762
2019-01-25T09:27:14.594Z,22.24762
2019-01-25T09:27:23.889Z,22.267761
2019-01-25T09:27:31.185Z,22.267761
2019-01-25T09:27:39.095Z,22.24762
2019-01-25T09:27:45.964Z,22.277832
2019-01-25T09:27:52.633Z,22.277832
2019-01-25T09:27:58.286Z,22.267761
2019-01-25T09:28:03.930Z,22.287903
2019-01-25T09:28:09.930Z,22.287903
2019-01-25T09:28:16.374Z,22.277832
2019-01-25T09:28:22.095Z,22.287903
2019-01-25T09:28:27.701Z,22.287903
2019-01-25T09:28:34.652Z,22.277832
2019-01-25T09:28:40.450Z,22.287903
2019-01-25T09:28:48.068Z,22.277832
2019-01-25T09:28:53.880Z,22.277832
2019-01-25T09:29:01.647Z,22.308044
2019-01-25T09:29:07.543Z,22.308044
2019-01-25T09:29:13.209Z,22.287903
2019-01-25T09:29:18.817Z,22.318115
2019-01-25T09:29:25.504Z,22.308044
2019-01-25T09:29:31.506Z,22.318115
2019-01-25T09:29:38.083Z,22.308044
2019-01-25T09:29:43.811Z,22.318115
2019-01-25T09:29:50.510Z,22.308044
2019-01-25T09:29:58.258Z,22.318115
2019-01-25T09:30:04.227Z,22.338257
2019-01-25T09:30:10.833Z,22.348328
2019-01-25T09:30:16.529Z,22.338257
2019-01-25T09:30:22.312Z,22.348328
2019-01-25T09:30:27.953Z,22.338257
2019-01-25T09:30:34.263Z,22.348328
2019-01-25T09:30:39.320Z,22.348328
2019-01-25T09:30:46.039Z,22.348328
2019-01-25T09:30:51.883Z,22.348328
2019-01-25T09:30:58.483Z,22.368469
2019-01-25T09:31:04.199Z,22.368469